NWS Home NWS Lubbock West Texas Mesonet Central Sector Latest Conditions as of 0138 PM, Sun Nov 17, 2019

Latest   N   C   S   Daily Sum   3hrΔ   24hrΔ   Soil Data 
Site Map   24hr Precip   72hr Precip   Google Plot


Station Time of Last Temp Dew Pt. RH Wind Direction Wind Speed Wind Gust Max Wind Max Temp Min Temp Max RH Min RH Altimeter 1HR Rain Today's Rain Solar Rad
Abernathy 5ENE  01:30 PM 58 35 42% NE1623 31 mph 17° @ 0425 AM 59 37 82 42 30.15" 0 0.00 627
Aiken 3WSW  01:30 PM 57 35 44% N1316 33 mph 21° @ 0911 AM 58 36 87 43 30.15" 0 0.00 648
Amherst 1NE  01:30 PM 57 35 45% N1221 38 mph 357° @ 0340 AM 57 36 77 45 30.16" 0 0.00 553
Anton 6SSW  01:30 PM 58 34 41% N1318 31 mph 359° @ 0505 AM 58 35 81 41 30.15" 0 0.00 627
Aspermont 3NE  01:30 PM 65 38 38% N1323 31 mph 5° @ 0935 AM 65 36 96 38 30.08" 0 0.00 617
Bootleg 11WNW  01:30 PM 54 33 45% N49 33 mph 353° @ 0224 AM 54 35 90 34 30.19" 0 0.00 564
Brownfield 2S  01:30 PM 60 35 40% NE1014 35 mph 6° @ 0425 AM 60 39 89 40 30.14" 0 0.00 645
Caprock Canyons State Park  01:30 PM 58 35 41% N1115 42 mph 352° @ 0344 AM 59 46 70 41 30.13" 0 0.00 635
Childress 2NNE  01:30 PM 63 35 35% N1626 32 mph 1° @ 0935 AM 63 41 74 35 30.09" 0 0.00 589
Clarendon 2WSW  01:30 PM 58 33 40% N1015 34 mph 2° @ 0335 AM 59 43 77 39 30.12" 0 0.00 608
Claude 12SW  01:30 PM 56 34 45% N1215 35 mph 355° @ 0251 AM 56 40 78 44 30.13" 0 0.00 635
Crowell 1E  01:30 PM 65 39 38% N2023 35 mph 9° @ 0929 AM 65 40 83 38 30.08" 0 0.00 618
Denver City 7WNW  01:30 PM 59 31 34% NE711 30 mph 2° @ 0630 AM 59 42 78 34 30.15" 0 0.00 639
Dimmitt 2NE  01:30 PM 54 35 49% N712 40 mph 358° @ 0305 AM 54 38 81 45 30.15" 0 0.00 612
Dora NM 2SW  01:30 PM 57 33 42% N610 27 mph 14° @ 0320 AM 57 37 71 35 30.18" 0 0.00 585
Earth 9WSW  01:30 PM 57 36 45% N812 39 mph 2° @ 0319 AM 57 37 78 43 30.17" 0 0.00 621
Estelline 3SSE  01:30 PM 63 35 36% N1416 28 mph 15° @ 0958 AM 63 43 74 36 30.10" 0 0.00 598
Floydada 2NNE  01:30 PM 60 34 39% N1522 30 mph 13° @ 0855 AM 60 36 89 38 30.12" 0 0.00 622
Fluvanna 3WNW  01:30 PM 61 36 39% N1620 38 mph 13° @ 1005 AM 61 35 94 39 30.10" 0 0.00 620
Friona 2NE  01:30 PM 55 35 47% NW48 37 mph 2° @ 0250 AM 56 37 86 40 30.17" 0 0.00 638
Gail 2ESE  01:30 PM 62 34 35% N1216 31 mph 9° @ 0910 AM 63 35 91 35 30.10" 0 0.00 632
Goodlett 3W  01:30 PM 64 36 36% N1520 33 mph 356° @ 0900 AM 64 40 76 36 30.07" 0 0.00 591
Graham 5SSW  01:30 PM 60 35 40% N1320 36 mph 10° @ 0535 AM 60 39 92 40 30.12" 0 0.00 648
Guthrie 10WSW  01:30 PM 63 35 36% N1726 36 mph 1° @ 1000 AM 63 39 91 36 30.08" 0 0.00 498
Hackberry 2 SSE  01:30 PM 64 38 38% N1923 32 mph 9° @ 0947 AM 64 38 93 38 30.09" 0 0.00 651
Happy 1E  01:30 PM 55 36 48% N1417 40 mph 8° @ 0253 AM 56 40 77 46 30.15" 0 0.00 620
Hart 3N  01:30 PM 55 37 50% N913 41 mph 352° @ 0325 AM 55 38 83 50 30.15" 0 0.00 624
Haskell 1NW  01:30 PM 63 38 40% N1624 35 mph 15° @ 1015 AM 63 36 90 40 30.06" 0 0.00 593
Hereford 2NW  01:30 PM 54 35 49% NE710 34 mph 12° @ 0145 AM 55 38 83 41 30.15" 0 0.00 609
Hobbs NM 5NW  01:30 PM 61 30 32% E34 32 mph 9° @ 0627 AM 62 40 85 30 30.20" 0 0.00 643
Jayton 1SSE  01:30 PM 63 37 39% N1419 39 mph 7° @ 0815 AM 63 37 95 39 30.09" 0 0.00 628
Knox City 3NW  01:30 PM 65 39 38% N1622 33 mph 8° @ 0950 AM 65 39 93 38 30.08" 0 0.00 556
Lake Alan Henry 1NW  01:30 PM 63 37 38% NE1015 29 mph 26° @ 0938 AM 64 39 94 37 30.10" 0 0.00 617
Lamesa 2SE  01:30 PM 60 37 42% N918 34 mph 9° @ 0950 AM 60 37 94 42 30.14" 0 0.00 675
Lesley 2S  01:30 PM 63 35 35% N1114 31 mph 354° @ 0318 AM 63 47 71 34 30.11" 0 0.00 407
Levelland 4S  01:30 PM 58 34 41% N1217 33 mph 5° @ 0520 AM 59 34 86 40 30.15" 0 0.00 625
Lubbock 3WNW TTU  01:30 PM 60 34 38% N1218 27 mph 16° @ 0940 AM 60 39 87 38 30.14" 0 0.00 647
Memphis 1NE  01:30 PM 62 33 35% N1014 34 mph 6° @ 0415 AM 62 46 67 35 30.11" 0 0.00 515
Morton 1ENE  01:30 PM 59 33 38% N1012 33 mph 1° @ 0350 AM 59 39 70 38 30.16" 0 0.00 592
Muleshoe 2SSW  01:30 PM 56 36 47% NE1116 34 mph 7° @ 0300 AM 56 36 80 42 30.17" 0 0.00 617
New Home  01:30 PM 61 36 40% NE911 30 mph 14° @ 0901 AM 61 37 95 40 30.14" 0 0.00 639
Northfield 1S  01:30 PM 64 34 33% N1422 29 mph 9° @ 0920 AM 64 40 83 33 30.10" 0 0.00 594
O'Donnell 1N  01:30 PM 62 37 40% N1217 35 mph 4° @ 0505 AM 62 37 96 40 30.12" 0 0.00 582
Odell 4ENE  01:30 PM 64 38 38% N1316 30 mph 9° @ 1009 AM 65 38 85 36 30.08" 0 0.00 604
Olton 6S  01:30 PM 56 35 45% N1419 35 mph 7° @ 0425 AM 57 32 84 44 30.17" 0 0.00 576
Paducah 10SW  01:30 PM 63 36 37% N1927 33 mph 359° @ 0940 AM 63 40 91 37 30.08" 0 0.00 552
Palo Duro 4E (JA Ranch)  01:30 PM 60 35 39% N710 37 mph 3° @ 0314 AM 61 42 79 39 30.12" 0 0.00 606
Palo Duro Canyon SP Floor  01:30 PM 61 35 37% N1116 24 mph 342° @ 0252 AM 62 41 72 37 30.13" 0 0.00 588
Palo Duro Canyon State Park Rim  01:30 PM 58 34 41% N1014 36 mph 349° @ 0138 AM 58 41 74 41 30.15" 0 0.00 639
Plains 3N  01:30 PM 58 34 41% N1114 32 mph 358° @ 0525 AM 58 42 80 41 30.15" 0 0.00 631
Plainview 1S  01:30 PM 58 36 45% N1117 31 mph 7° @ 0405 AM 58 41 80 45 30.14" 0 0.00 563
Post 1NE  01:30 PM 63 34 34% N1218 30 mph 20° @ 0945 AM 63 39 91 34 30.11" 0 0.00 623
Ralls 1SE  01:30 PM 60 34 39% NE1620 35 mph 10° @ 0850 AM 60 40 86 39 30.13" 0 0.00 624
Reese Center  01:30 PM 60 35 39% N1521 31 mph 7° @ 0430 AM 60 36 84 39 30.14" 0 0.00 657
Roaring Springs 3N  01:30 PM 60 38 45% N1824 33 mph 12° @ 0945 AM 60 44 89 45 30.10" 0 0.00 576
Rotan 5W  01:30 PM 63 38 40% N1416 33 mph 359° @ 0905 AM 63 39 91 40 30.09" 0 0.00 637
Seagraves 1SW  01:30 PM 60 35 39% N1017 32 mph 6° @ 0935 AM 60 39 91 38 30.14" 0 0.00 589
Seminole 2NNE  01:30 PM 60 32 35% NE913 35 mph 7° @ 0430 AM 60 42 85 35 30.15" 0 0.00 660
Seymour 3NW  01:30 PM 65 38 39% NE1723 29 mph 16° @ 1020 AM 65 36 91 39 30.06" 0 0.00 622
Silverton 7ESE  01:30 PM 58 34 40% N1419 40 mph 357° @ 0300 AM 58 43 70 40 30.12" 0 0.00 575
Slaton 2NE  01:30 PM 60 36 41% N1218 33 mph 359° @ 0705 AM 60 38 93 41 30.13" 0 0.00 575
Smyer  01:30 PM 59 35 40% N913 29 mph 4° @ 0845 AM 60 38 80 39 30.14" 0 0.00 649
Snyder 3E  01:30 PM 62 37 39% N1319 39 mph 10° @ 0935 AM 62 40 94 39 30.09" 0 0.00 577
Snyder 3SSW  01:30 PM 63 37 38% N711 38 mph 13° @ 1015 AM 63 36 97 38 30.11" 0 0.00 631
South Plains 3ENE  01:30 PM 58 36 42% N1217 35 mph 8° @ 0331 AM 59 40 79 42 30.12" 0 0.00 606
Spur 1W  01:30 PM 62 36 38% NE1522 41 mph 22° @ 0915 AM 62 36 94 38 30.09" 0 0.00 625
Stamford 5ESE  01:30 PM 62 39 42% N1922 30 mph 3° @ 0937 AM 63 37 93 42 30.07" 0 0.00 627
Sundown 8WSW  01:30 PM 61 33 35% NE1016 34 mph 4° @ 0405 AM 61 39 77 35 30.15" 0 0.00 576
Tahoka 3NNE  01:30 PM 61 35 38% N1013 31 mph 16° @ 0903 AM 61 35 95 38 30.13" 0 0.00 636
Tatum NM 2SW  01:30 PM 58 32 37% N611 32 mph 6° @ 0515 AM 59 40 69 37 30.18" 0 0.00 681
Throckmorton 1SW  01:30 PM 63 38 40% N1015 24 mph 355° @ 1014 AM 64 37 88 39 30.05" 0 0.00 627
Truscott 2SE  01:30 PM 65 38 37% N1622 29 mph 8° @ 0946 AM 65 39 89 37 30.07" 0 0.00 595
Tulia 2ENE  01:30 PM 56 35 45% N1014 36 mph 355° @ 0330 AM 56 40 73 45 30.14" 0 0.00 549
Turkey 2WSW  01:30 PM 60 35 40% NW1220 31 mph 328° @ 0330 AM 60 43 80 40 30.11" 0 0.00 552
Umbarger 3NNE  01:30 PM 55 35 47% NE810 37 mph 7° @ 0156 AM 55 39 82 43 30.15" 0 0.00 594
Vigo Park  01:30 PM 56 35 45% N913 35 mph 353° @ 0323 AM 57 41 76 45 30.14" 0 0.00 567
Weinert 2NNE  01:30 PM 64 37 37% N1822 33 mph 20° @ 1011 AM 64 38 87 37 30.07" 0 0.00 606
Welch  01:30 PM 61 36 38% N810 34 mph 20° @ 0952 AM 61 34 100 38 30.14" 0 0.00 671
White River Lake 6NW  01:30 PM 62 36 38% N1421 42 mph 1° @ 0900 AM 62 39 90 38 30.10" 0 0.00 640
Wolfforth 6SSW  01:30 PM 60 35 40% NE1217 31 mph 3° @ 0350 AM 60 38 89 40 30.14" 0 0.00 654

West Texas Mesonet Home   Site Map/Menu  NWS Lubbock Soil Data  Daily Summary Page  24hr Precip  72hr Precip  Google Plot